sensor_id;sensor_type;location;lat;lon;timestamp;temperature;humidity
17813;DHT22;9030;50.792;8.320;2023-12-04T00:00:17;-2.40;99.90
17813;DHT22;9030;50.792;8.320;2023-12-04T00:03:01;-2.40;99.90
17813;DHT22;9030;50.792;8.320;2023-12-04T00:05:31;-2.40;99.90
17813;DHT22;9030;50.792;8.320;2023-12-04T00:08:13;-2.30;99.90
17813;DHT22;9030;50.792;8.320;2023-12-04T00:10:54;-2.40;99.90
17813;DHT22;9030;50.792;8.320;2023-12-04T00:17:03;-2.30;99.90
17813;DHT22;9030;50.792;8.320;2023-12-04T00:20:07;-2.40;99.90
17813;DHT22;9030;50.792;8.320;2023-12-04T00:22:55;-2.40;99.90
17813;DHT22;9030;50.792;8.320;2023-12-04T00:25:38;-2.30;99.90
17813;DHT22;9030;50.792;8.320;2023-12-04T00:28:11;-2.30;99.90
17813;DHT22;9030;50.792;8.320;2023-12-04T00:30:50;-2.30;99.90
17813;DHT22;9030;50.792;8.320;2023-12-04T00:33:36;-2.30;99.90
17813;DHT22;9030;50.792;8.320;2023-12-04T00:36:57;-2.30;99.90
17813;DHT22;9030;50.792;8.320;2023-12-04T00:39:34;-2.30;99.90
17813;DHT22;9030;50.792;8.320;2023-12-04T00:42:26;-2.30;99.90
17813;DHT22;9030;50.792;8.320;2023-12-04T00:45:08;-2.40;99.90
17813;DHT22;9030;50.792;8.320;2023-12-04T00:54:28;-2.30;99.90
17813;DHT22;9030;50.792;8.320;2023-12-04T00:57:53;-2.30;99.90
17813;DHT22;9030;50.792;8.320;2023-12-04T01:00:57;-2.40;99.90
17813;DHT22;9030;50.792;8.320;2023-12-04T01:03:37;-2.40;99.90
17813;DHT22;9030;50.792;8.320;2023-12-04T01:06:06;-2.40;99.90
17813;DHT22;9030;50.792;8.320;2023-12-04T01:08:36;-2.40;99.90
17813;DHT22;9030;50.792;8.320;2023-12-04T01:14:36;-2.30;99.90
17813;DHT22;9030;50.792;8.320;2023-12-04T01:17:08;-2.30;99.90
17813;DHT22;9030;50.792;8.320;2023-12-04T01:19:40;-2.30;99.90
17813;DHT22;9030;50.792;8.320;2023-12-04T01:22:43;-2.30;99.90
17813;DHT22;9030;50.792;8.320;2023-12-04T01:25:11;-2.30;99.90
17813;DHT22;9030;50.792;8.320;2023-12-04T01:31:18;-2.40;99.90
17813;DHT22;9030;50.792;8.320;2023-12-04T01:33:58;-2.50;99.90
17813;DHT22;9030;50.792;8.320;2023-12-04T01:36:28;-2.50;99.90
17813;DHT22;9030;50.792;8.320;2023-12-04T01:38:58;-2.50;99.90
17813;DHT22;9030;50.792;8.320;2023-12-04T01:41:31;-2.60;99.90
17813;DHT22;9030;50.792;8.320;2023-12-04T01:44:32;-2.60;99.90
17813;DHT22;9030;50.792;8.320;2023-12-04T01:47:03;-2.60;99.90
17813;DHT22;9030;50.792;8.320;2023-12-04T01:50:09;-2.60;99.90
17813;DHT22;9030;50.792;8.320;2023-12-04T01:52:47;-2.70;99.90
17813;DHT22;9030;50.792;8.320;2023-12-04T01:55:34;-2.70;99.90
17813;DHT22;9030;50.792;8.320;2023-12-04T01:58:40;-2.70;99.90
17813;DHT22;9030;50.792;8.320;2023-12-04T02:01:21;-2.70;99.90
17813;DHT22;9030;50.792;8.320;2023-12-04T02:04:10;-2.60;99.90
17813;DHT22;9030;50.792;8.320;2023-12-04T02:06:46;-2.70;99.90
17813;DHT22;9030;50.792;8.320;2023-12-04T02:09:15;-2.70;99.90
17813;DHT22;9030;50.792;8.320;2023-12-04T02:11:53;-2.70;99.90
17813;DHT22;9030;50.792;8.320;2023-12-04T02:14:45;-2.70;99.90
17813;DHT22;9030;50.792;8.320;2023-12-04T02:17:16;-2.80;99.90
17813;DHT22;9030;50.792;8.320;2023-12-04T02:23:10;-2.80;99.90
17813;DHT22;9030;50.792;8.320;2023-12-04T02:25:47;-2.80;99.90
17813;DHT22;9030;50.792;8.320;2023-12-04T02:28:33;-2.80;99.90
17813;DHT22;9030;50.792;8.320;2023-12-04T02:31:18;-2.80;99.90
17813;DHT22;9030;50.792;8.320;2023-12-04T02:33:57;-2.80;99.90
17813;DHT22;9030;50.792;8.320;2023-12-04T02:36:35;-2.80;99.90
17813;DHT22;9030;50.792;8.320;2023-12-04T02:39:19;-2.80;99.90
17813;DHT22;9030;50.792;8.320;2023-12-04T02:45:37;-2.80;99.90
17813;DHT22;9030;50.792;8.320;2023-12-04T02:48:08;-2.80;99.90
17813;DHT22;9030;50.792;8.320;2023-12-04T02:50:37;-2.80;99.90
17813;DHT22;9030;50.792;8.320;2023-12-04T02:53:08;-2.80;99.90
17813;DHT22;9030;50.792;8.320;2023-12-04T02:55:49;-2.80;99.90
17813;DHT22;9030;50.792;8.320;2023-12-04T02:58:20;-2.80;99.90
17813;DHT22;9030;50.792;8.320;2023-12-04T03:01:06;-2.80;99.90
17813;DHT22;9030;50.792;8.320;2023-12-04T03:03:35;-2.80;99.90
17813;DHT22;9030;50.792;8.320;2023-12-04T03:06:06;-2.80;99.90
17813;DHT22;9030;50.792;8.320;2023-12-04T03:08:37;-2.80;99.90
17813;DHT22;9030;50.792;8.320;2023-12-04T03:11:07;-2.80;99.90
17813;DHT22;9030;50.792;8.320;2023-12-04T03:13:37;-2.80;99.90
17813;DHT22;9030;50.792;8.320;2023-12-04T03:16:41;-2.80;99.90
17813;DHT22;9030;50.792;8.320;2023-12-04T03:19:18;-2.90;99.90
17813;DHT22;9030;50.792;8.320;2023-12-04T03:21:48;-2.90;99.90
17813;DHT22;9030;50.792;8.320;2023-12-04T03:24:26;-2.90;99.90
17813;DHT22;9030;50.792;8.320;2023-12-04T03:27:02;-2.90;99.90
17813;DHT22;9030;50.792;8.320;2023-12-04T03:29:33;-2.80;99.90
17813;DHT22;9030;50.792;8.320;2023-12-04T03:32:07;-2.80;99.90
17813;DHT22;9030;50.792;8.320;2023-12-04T03:34:39;-2.80;99.90
17813;DHT22;9030;50.792;8.320;2023-12-04T03:37:08;-2.90;99.90
17813;DHT22;9030;50.792;8.320;2023-12-04T03:39:37;-2.90;99.90
17813;DHT22;9030;50.792;8.320;2023-12-04T03:42:06;-2.90;99.90
17813;DHT22;9030;50.792;8.320;2023-12-04T03:44:45;-2.90;99.90
17813;DHT22;9030;50.792;8.320;2023-12-04T03:47:15;-2.80;99.90
17813;DHT22;9030;50.792;8.320;2023-12-04T03:49:45;-2.90;99.90
17813;DHT22;9030;50.792;8.320;2023-12-04T03:52:21;-2.90;99.90
17813;DHT22;9030;50.792;8.320;2023-12-04T03:54:54;-2.80;99.90
17813;DHT22;9030;50.792;8.320;2023-12-04T03:57:26;-2.90;99.90
17813;DHT22;9030;50.792;8.320;2023-12-04T03:59:58;-2.90;99.90
17813;DHT22;9030;50.792;8.320;2023-12-04T04:02:51;-2.90;99.90
17813;DHT22;9030;50.792;8.320;2023-12-04T04:05:24;-2.90;99.90
17813;DHT22;9030;50.792;8.320;2023-12-04T04:07:57;-2.90;99.90
17813;DHT22;9030;50.792;8.320;2023-12-04T04:10:37;-2.90;99.90
17813;DHT22;9030;50.792;8.320;2023-12-04T04:13:06;-2.90;99.90
17813;DHT22;9030;50.792;8.320;2023-12-04T04:15:49;-3.00;99.90
17813;DHT22;9030;50.792;8.320;2023-12-04T04:18:57;-3.00;99.90
17813;DHT22;9030;50.792;8.320;2023-12-04T04:21:39;-3.00;99.90
17813;DHT22;9030;50.792;8.320;2023-12-04T04:24:34;-3.10;99.90
17813;DHT22;9030;50.792;8.320;2023-12-04T04:27:18;-3.10;99.90
17813;DHT22;9030;50.792;8.320;2023-12-04T04:30:35;-3.10;99.90
17813;DHT22;9030;50.792;8.320;2023-12-04T04:33:24;-3.00;99.90
17813;DHT22;9030;50.792;8.320;2023-12-04T04:36:22;-3.10;99.90
17813;DHT22;9030;50.792;8.320;2023-12-04T04:42:44;-3.10;99.90
17813;DHT22;9030;50.792;8.320;2023-12-04T04:45:45;-3.10;99.90
17813;DHT22;9030;50.792;8.320;2023-12-04T05:01:50;-3.20;99.90
17813;DHT22;9030;50.792;8.320;2023-12-04T05:04:37;-3.20;99.90
17813;DHT22;9030;50.792;8.320;2023-12-04T05:07:28;-3.20;99.90
17813;DHT22;9030;50.792;8.320;2023-12-04T05:10:11;-3.20;99.90
17813;DHT22;9030;50.792;8.320;2023-12-04T05:13:15;-3.20;99.90
17813;DHT22;9030;50.792;8.320;2023-12-04T05:16:19;-3.20;99.90
17813;DHT22;9030;50.792;8.320;2023-12-04T05:18:58;-3.20;99.90
17813;DHT22;9030;50.792;8.320;2023-12-04T05:21:41;-3.30;99.90
17813;DHT22;9030;50.792;8.320;2023-12-04T05:24:20;-3.30;99.90
17813;DHT22;9030;50.792;8.320;2023-12-04T05:27:03;-3.30;99.90
17813;DHT22;9030;50.792;8.320;2023-12-04T05:29:37;-3.30;99.90
17813;DHT22;9030;50.792;8.320;2023-12-04T05:32:08;-3.30;99.90
17813;DHT22;9030;50.792;8.320;2023-12-04T05:35:00;-3.30;99.90
17813;DHT22;9030;50.792;8.320;2023-12-04T05:37:29;-3.30;99.90
17813;DHT22;9030;50.792;8.320;2023-12-04T05:40:00;-3.30;99.90
17813;DHT22;9030;50.792;8.320;2023-12-04T05:42:41;-3.40;99.90
17813;DHT22;9030;50.792;8.320;2023-12-04T05:45:22;-3.30;99.90
17813;DHT22;9030;50.792;8.320;2023-12-04T05:47:49;-3.40;99.90
17813;DHT22;9030;50.792;8.320;2023-12-04T05:50:17;-3.40;99.90
17813;DHT22;9030;50.792;8.320;2023-12-04T05:52:44;-3.50;99.90
17813;DHT22;9030;50.792;8.320;2023-12-04T05:55:11;-3.40;99.90
17813;DHT22;9030;50.792;8.320;2023-12-04T05:57:38;-3.40;99.90
17813;DHT22;9030;50.792;8.320;2023-12-04T06:00:06;-3.40;99.90
17813;DHT22;9030;50.792;8.320;2023-12-04T06:02:37;-3.50;99.90
17813;DHT22;9030;50.792;8.320;2023-12-04T06:05:05;-3.50;99.90
17813;DHT22;9030;50.792;8.320;2023-12-04T06:07:32;-3.40;99.90
17813;DHT22;9030;50.792;8.320;2023-12-04T06:09:59;-3.40;99.90
17813;DHT22;9030;50.792;8.320;2023-12-04T06:12:26;-3.50;99.90
17813;DHT22;9030;50.792;8.320;2023-12-04T06:14:52;-3.40;99.90
17813;DHT22;9030;50.792;8.320;2023-12-04T06:17:19;-3.40;99.90
17813;DHT22;9030;50.792;8.320;2023-12-04T06:19:46;-3.50;99.90
17813;DHT22;9030;50.792;8.320;2023-12-04T06:22:13;-3.50;99.90
17813;DHT22;9030;50.792;8.320;2023-12-04T06:24:42;-3.50;99.90
17813;DHT22;9030;50.792;8.320;2023-12-04T06:27:10;-3.50;99.90
17813;DHT22;9030;50.792;8.320;2023-12-04T06:29:39;-3.50;99.90
17813;DHT22;9030;50.792;8.320;2023-12-04T06:32:06;-3.60;99.90
17813;DHT22;9030;50.792;8.320;2023-12-04T06:34:34;-3.60;99.90
17813;DHT22;9030;50.792;8.320;2023-12-04T06:37:02;-3.60;99.90
17813;DHT22;9030;50.792;8.320;2023-12-04T06:39:32;-3.60;99.90
17813;DHT22;9030;50.792;8.320;2023-12-04T06:42:01;-3.60;99.90
17813;DHT22;9030;50.792;8.320;2023-12-04T06:44:28;-3.60;99.90
17813;DHT22;9030;50.792;8.320;2023-12-04T06:46:58;-3.60;99.90
17813;DHT22;9030;50.792;8.320;2023-12-04T06:49:28;-3.50;99.90
17813;DHT22;9030;50.792;8.320;2023-12-04T06:51:56;-3.50;99.90
17813;DHT22;9030;50.792;8.320;2023-12-04T06:54:22;-3.60;99.90
17813;DHT22;9030;50.792;8.320;2023-12-04T06:56:49;-3.60;99.90
17813;DHT22;9030;50.792;8.320;2023-12-04T06:59:17;-3.60;99.90
17813;DHT22;9030;50.792;8.320;2023-12-04T07:01:44;-3.60;99.90
17813;DHT22;9030;50.792;8.320;2023-12-04T07:04:11;-3.50;99.90
17813;DHT22;9030;50.792;8.320;2023-12-04T07:06:38;-3.50;99.90
17813;DHT22;9030;50.792;8.320;2023-12-04T07:09:05;-3.60;99.90
17813;DHT22;9030;50.792;8.320;2023-12-04T07:11:33;-3.60;99.90
17813;DHT22;9030;50.792;8.320;2023-12-04T07:13:59;-3.60;99.90
17813;DHT22;9030;50.792;8.320;2023-12-04T07:16:27;-3.60;99.90
17813;DHT22;9030;50.792;8.320;2023-12-04T07:18:54;-3.60;99.90
17813;DHT22;9030;50.792;8.320;2023-12-04T07:21:21;-3.50;99.90
17813;DHT22;9030;50.792;8.320;2023-12-04T07:23:47;-3.50;99.90
17813;DHT22;9030;50.792;8.320;2023-12-04T07:26:14;-3.50;99.90
17813;DHT22;9030;50.792;8.320;2023-12-04T07:28:40;-3.50;99.90
17813;DHT22;9030;50.792;8.320;2023-12-04T07:31:07;-3.50;99.90
17813;DHT22;9030;50.792;8.320;2023-12-04T07:33:35;-3.40;99.90
17813;DHT22;9030;50.792;8.320;2023-12-04T07:36:02;-3.40;99.90
17813;DHT22;9030;50.792;8.320;2023-12-04T07:38:28;-3.40;99.90
17813;DHT22;9030;50.792;8.320;2023-12-04T07:40:55;-3.30;99.90
17813;DHT22;9030;50.792;8.320;2023-12-04T07:43:22;-3.30;99.90
17813;DHT22;9030;50.792;8.320;2023-12-04T07:45:49;-3.30;99.90
17813;DHT22;9030;50.792;8.320;2023-12-04T07:48:15;-3.20;99.90
17813;DHT22;9030;50.792;8.320;2023-12-04T07:50:44;-3.20;99.90
17813;DHT22;9030;50.792;8.320;2023-12-04T07:53:10;-3.10;99.90
17813;DHT22;9030;50.792;8.320;2023-12-04T07:55:38;-3.10;99.90
17813;DHT22;9030;50.792;8.320;2023-12-04T07:58:05;-3.10;99.90
17813;DHT22;9030;50.792;8.320;2023-12-04T08:00:31;-3.00;99.90
17813;DHT22;9030;50.792;8.320;2023-12-04T08:02:58;-3.00;99.90
17813;DHT22;9030;50.792;8.320;2023-12-04T08:05:25;-3.00;99.90
17813;DHT22;9030;50.792;8.320;2023-12-04T08:07:54;-3.00;99.90
17813;DHT22;9030;50.792;8.320;2023-12-04T08:10:20;-2.90;99.90
17813;DHT22;9030;50.792;8.320;2023-12-04T08:12:48;-3.00;99.90
17813;DHT22;9030;50.792;8.320;2023-12-04T08:15:15;-2.90;99.90
17813;DHT22;9030;50.792;8.320;2023-12-04T08:17:41;-2.80;99.90
17813;DHT22;9030;50.792;8.320;2023-12-04T08:20:08;-2.80;99.90
17813;DHT22;9030;50.792;8.320;2023-12-04T08:22:38;-2.80;99.90
17813;DHT22;9030;50.792;8.320;2023-12-04T08:25:07;-2.80;99.90
17813;DHT22;9030;50.792;8.320;2023-12-04T08:27:33;-2.70;99.90
17813;DHT22;9030;50.792;8.320;2023-12-04T08:30:00;-2.60;99.90
17813;DHT22;9030;50.792;8.320;2023-12-04T08:32:27;-2.60;99.90
17813;DHT22;9030;50.792;8.320;2023-12-04T08:34:54;-2.50;99.90
17813;DHT22;9030;50.792;8.320;2023-12-04T08:37:21;-2.50;99.90
17813;DHT22;9030;50.792;8.320;2023-12-04T08:39:47;-2.40;99.90
17813;DHT22;9030;50.792;8.320;2023-12-04T08:42:15;-2.50;99.90
17813;DHT22;9030;50.792;8.320;2023-12-04T08:44:42;-2.40;99.90
17813;DHT22;9030;50.792;8.320;2023-12-04T08:47:11;-2.40;99.90
17813;DHT22;9030;50.792;8.320;2023-12-04T08:49:37;-2.30;99.90
17813;DHT22;9030;50.792;8.320;2023-12-04T08:52:06;-2.30;99.90
17813;DHT22;9030;50.792;8.320;2023-12-04T08:54:33;-2.40;99.90
17813;DHT22;9030;50.792;8.320;2023-12-04T08:57:05;-2.50;99.90
17813;DHT22;9030;50.792;8.320;2023-12-04T08:59:46;-2.40;99.90
17813;DHT22;9030;50.792;8.320;2023-12-04T09:02:18;-2.30;99.90
17813;DHT22;9030;50.792;8.320;2023-12-04T09:04:53;-2.30;99.90
17813;DHT22;9030;50.792;8.320;2023-12-04T09:07:25;-2.20;99.90
17813;DHT22;9030;50.792;8.320;2023-12-04T09:10:02;-2.20;99.90
17813;DHT22;9030;50.792;8.320;2023-12-04T09:12:41;-2.20;99.90
17813;DHT22;9030;50.792;8.320;2023-12-04T09:15:17;-2.20;99.90
17813;DHT22;9030;50.792;8.320;2023-12-04T09:17:55;-2.20;99.90
17813;DHT22;9030;50.792;8.320;2023-12-04T09:20:27;-2.30;99.90
17813;DHT22;9030;50.792;8.320;2023-12-04T09:23:02;-2.30;99.90
17813;DHT22;9030;50.792;8.320;2023-12-04T09:25:38;-2.30;99.90
17813;DHT22;9030;50.792;8.320;2023-12-04T09:28:16;-2.30;99.90
17813;DHT22;9030;50.792;8.320;2023-12-04T09:31:14;-2.20;99.90
17813;DHT22;9030;50.792;8.320;2023-12-04T09:34:00;-2.10;99.90
17813;DHT22;9030;50.792;8.320;2023-12-04T09:36:30;-2.20;99.90
17813;DHT22;9030;50.792;8.320;2023-12-04T09:39:14;-2.30;99.90
17813;DHT22;9030;50.792;8.320;2023-12-04T09:41:58;-2.20;99.90
17813;DHT22;9030;50.792;8.320;2023-12-04T09:44:30;-2.20;99.90
17813;DHT22;9030;50.792;8.320;2023-12-04T09:47:09;-2.30;99.90
17813;DHT22;9030;50.792;8.320;2023-12-04T09:50:01;-2.20;99.90
17813;DHT22;9030;50.792;8.320;2023-12-04T09:55:47;-2.10;99.90
17813;DHT22;9030;50.792;8.320;2023-12-04T09:58:19;-2.10;99.90
17813;DHT22;9030;50.792;8.320;2023-12-04T10:00:52;-2.10;99.90
17813;DHT22;9030;50.792;8.320;2023-12-04T10:03:42;-2.10;99.90
17813;DHT22;9030;50.792;8.320;2023-12-04T10:06:22;-2.10;99.90
17813;DHT22;9030;50.792;8.320;2023-12-04T10:08:57;-1.90;99.90
17813;DHT22;9030;50.792;8.320;2023-12-04T10:11:40;-1.80;99.90
17813;DHT22;9030;50.792;8.320;2023-12-04T10:14:18;-1.70;99.90
17813;DHT22;9030;50.792;8.320;2023-12-04T10:16:50;-1.70;99.90
17813;DHT22;9030;50.792;8.320;2023-12-04T10:19:41;-1.60;99.90
17813;DHT22;9030;50.792;8.320;2023-12-04T10:22:26;-1.80;99.90
17813;DHT22;9030;50.792;8.320;2023-12-04T10:24:56;-1.90;99.90
17813;DHT22;9030;50.792;8.320;2023-12-04T10:27:33;-1.80;99.90
17813;DHT22;9030;50.792;8.320;2023-12-04T10:30:06;-1.80;99.90
17813;DHT22;9030;50.792;8.320;2023-12-04T10:32:45;-1.80;99.90
17813;DHT22;9030;50.792;8.320;2023-12-04T10:35:26;-1.90;99.90
17813;DHT22;9030;50.792;8.320;2023-12-04T10:37:59;-2.00;99.90
17813;DHT22;9030;50.792;8.320;2023-12-04T10:40:32;-1.90;99.90
17813;DHT22;9030;50.792;8.320;2023-12-04T10:43:29;-1.70;99.90
17813;DHT22;9030;50.792;8.320;2023-12-04T10:46:11;-1.60;99.90
17813;DHT22;9030;50.792;8.320;2023-12-04T10:49:20;-1.50;99.90
17813;DHT22;9030;50.792;8.320;2023-12-04T10:52:24;-1.70;99.90
17813;DHT22;9030;50.792;8.320;2023-12-04T10:55:01;-1.70;99.90
17813;DHT22;9030;50.792;8.320;2023-12-04T10:57:54;-2.00;99.90
17813;DHT22;9030;50.792;8.320;2023-12-04T11:00:26;-1.90;99.90
17813;DHT22;9030;50.792;8.320;2023-12-04T11:03:17;-1.80;99.90
17813;DHT22;9030;50.792;8.320;2023-12-04T11:06:00;-1.80;99.90
17813;DHT22;9030;50.792;8.320;2023-12-04T11:08:34;-1.70;99.90
17813;DHT22;9030;50.792;8.320;2023-12-04T11:11:12;-1.50;99.90
17813;DHT22;9030;50.792;8.320;2023-12-04T11:13:48;-1.80;99.90
17813;DHT22;9030;50.792;8.320;2023-12-04T11:16:31;-1.80;99.90
17813;DHT22;9030;50.792;8.320;2023-12-04T11:19:37;-1.60;99.90
17813;DHT22;9030;50.792;8.320;2023-12-04T11:22:50;-1.50;99.90
17813;DHT22;9030;50.792;8.320;2023-12-04T11:25:24;-1.40;99.90
17813;DHT22;9030;50.792;8.320;2023-12-04T11:27:55;-1.40;99.90
17813;DHT22;9030;50.792;8.320;2023-12-04T11:30:27;-1.50;99.90
17813;DHT22;9030;50.792;8.320;2023-12-04T11:33:24;-1.50;99.90
17813;DHT22;9030;50.792;8.320;2023-12-04T11:36:08;-1.30;99.90
17813;DHT22;9030;50.792;8.320;2023-12-04T11:38:58;-1.20;99.90
17813;DHT22;9030;50.792;8.320;2023-12-04T11:45:20;-0.90;99.90
17813;DHT22;9030;50.792;8.320;2023-12-04T11:48:31;-1.00;99.90
17813;DHT22;9030;50.792;8.320;2023-12-04T11:54:25;-0.80;99.90
17813;DHT22;9030;50.792;8.320;2023-12-04T11:57:19;-0.90;99.90
17813;DHT22;9030;50.792;8.320;2023-12-04T12:00:11;-1.00;99.90
17813;DHT22;9030;50.792;8.320;2023-12-04T12:03:10;-0.90;99.90
17813;DHT22;9030;50.792;8.320;2023-12-04T12:06:00;-1.10;99.90
17813;DHT22;9030;50.792;8.320;2023-12-04T12:08:33;-1.10;99.90
17813;DHT22;9030;50.792;8.320;2023-12-04T12:11:15;-0.90;99.90
17813;DHT22;9030;50.792;8.320;2023-12-04T12:13:57;-1.30;99.90
17813;DHT22;9030;50.792;8.320;2023-12-04T12:16:57;-1.50;99.90
17813;DHT22;9030;50.792;8.320;2023-12-04T12:19:43;-1.70;99.90
17813;DHT22;9030;50.792;8.320;2023-12-04T12:22:12;-1.40;99.90
17813;DHT22;9030;50.792;8.320;2023-12-04T12:24:55;-1.20;99.90
17813;DHT22;9030;50.792;8.320;2023-12-04T12:27:44;-1.10;99.90
17813;DHT22;9030;50.792;8.320;2023-12-04T12:30:21;-1.00;99.90
17813;DHT22;9030;50.792;8.320;2023-12-04T12:32:59;-1.40;99.90
17813;DHT22;9030;50.792;8.320;2023-12-04T12:35:42;-1.40;99.90
17813;DHT22;9030;50.792;8.320;2023-12-04T12:38:35;-1.50;99.90
17813;DHT22;9030;50.792;8.320;2023-12-04T12:44:16;-1.50;99.90
17813;DHT22;9030;50.792;8.320;2023-12-04T12:47:07;-1.60;99.90
17813;DHT22;9030;50.792;8.320;2023-12-04T12:49:36;-1.70;99.90
17813;DHT22;9030;50.792;8.320;2023-12-04T12:52:29;-1.80;99.90
17813;DHT22;9030;50.792;8.320;2023-12-04T12:55:42;-1.90;99.90
17813;DHT22;9030;50.792;8.320;2023-12-04T12:58:13;-1.80;99.90
17813;DHT22;9030;50.792;8.320;2023-12-04T13:00:54;-1.60;99.90
17813;DHT22;9030;50.792;8.320;2023-12-04T13:03:39;-1.50;99.90
17813;DHT22;9030;50.792;8.320;2023-12-04T13:06:16;-1.60;99.90
17813;DHT22;9030;50.792;8.320;2023-12-04T13:08:53;-1.50;99.90
17813;DHT22;9030;50.792;8.320;2023-12-04T13:11:35;-1.50;99.90
17813;DHT22;9030;50.792;8.320;2023-12-04T13:14:12;-1.60;99.90
17813;DHT22;9030;50.792;8.320;2023-12-04T13:16:42;-1.60;99.90
17813;DHT22;9030;50.792;8.320;2023-12-04T13:19:24;-1.70;99.90
17813;DHT22;9030;50.792;8.320;2023-12-04T13:22:02;-1.80;99.90
17813;DHT22;9030;50.792;8.320;2023-12-04T13:28:13;-1.80;99.90
17813;DHT22;9030;50.792;8.320;2023-12-04T13:30:46;-1.90;99.90
17813;DHT22;9030;50.792;8.320;2023-12-04T13:33:42;-1.90;99.90
17813;DHT22;9030;50.792;8.320;2023-12-04T13:36:27;-1.80;99.90
17813;DHT22;9030;50.792;8.320;2023-12-04T13:39:08;-1.80;99.90
17813;DHT22;9030;50.792;8.320;2023-12-04T13:41:55;-1.90;99.90
17813;DHT22;9030;50.792;8.320;2023-12-04T13:44:59;-1.90;99.90
17813;DHT22;9030;50.792;8.320;2023-12-04T13:47:41;-1.80;99.90
17813;DHT22;9030;50.792;8.320;2023-12-04T13:50:40;-1.70;99.90
17813;DHT22;9030;50.792;8.320;2023-12-04T13:53:16;-1.90;99.90
17813;DHT22;9030;50.792;8.320;2023-12-04T13:55:57;-2.00;99.90
17813;DHT22;9030;50.792;8.320;2023-12-04T13:58:51;-2.00;99.90
17813;DHT22;9030;50.792;8.320;2023-12-04T14:05:29;-2.00;99.90
17813;DHT22;9030;50.792;8.320;2023-12-04T14:08:13;-2.20;99.90
17813;DHT22;9030;50.792;8.320;2023-12-04T14:10:51;-2.10;99.90
17813;DHT22;9030;50.792;8.320;2023-12-04T14:16:13;-2.20;99.90
17813;DHT22;9030;50.792;8.320;2023-12-04T14:18:59;-2.30;99.90
17813;DHT22;9030;50.792;8.320;2023-12-04T14:21:54;-2.30;99.90
17813;DHT22;9030;50.792;8.320;2023-12-04T14:24:43;-2.30;99.90
17813;DHT22;9030;50.792;8.320;2023-12-04T14:27:23;-2.30;99.90
17813;DHT22;9030;50.792;8.320;2023-12-04T14:29:53;-2.20;99.90
17813;DHT22;9030;50.792;8.320;2023-12-04T14:32:30;-2.20;99.90
17813;DHT22;9030;50.792;8.320;2023-12-04T14:35:10;-2.20;99.90
17813;DHT22;9030;50.792;8.320;2023-12-04T14:37:45;-2.20;99.90
17813;DHT22;9030;50.792;8.320;2023-12-04T14:40:31;-2.20;99.90
17813;DHT22;9030;50.792;8.320;2023-12-04T14:43:13;-2.10;99.90
17813;DHT22;9030;50.792;8.320;2023-12-04T14:46:06;-2.00;99.90
17813;DHT22;9030;50.792;8.320;2023-12-04T14:48:38;-1.90;99.90
17813;DHT22;9030;50.792;8.320;2023-12-04T14:51:08;-1.80;99.90
17813;DHT22;9030;50.792;8.320;2023-12-04T14:53:41;-1.90;99.90
17813;DHT22;9030;50.792;8.320;2023-12-04T14:56:17;-2.00;99.90
17813;DHT22;9030;50.792;8.320;2023-12-04T14:58:57;-2.00;99.90
17813;DHT22;9030;50.792;8.320;2023-12-04T15:01:45;-2.10;99.90
17813;DHT22;9030;50.792;8.320;2023-12-04T15:04:32;-2.10;99.90
17813;DHT22;9030;50.792;8.320;2023-12-04T15:07:36;-2.10;99.90
17813;DHT22;9030;50.792;8.320;2023-12-04T15:10:29;-2.10;99.90
17813;DHT22;9030;50.792;8.320;2023-12-04T15:13:16;-2.10;99.90
17813;DHT22;9030;50.792;8.320;2023-12-04T15:16:16;-2.10;99.90
17813;DHT22;9030;50.792;8.320;2023-12-04T15:18:53;-2.10;99.90
17813;DHT22;9030;50.792;8.320;2023-12-04T15:21:37;-2.00;99.90
17813;DHT22;9030;50.792;8.320;2023-12-04T15:24:07;-2.00;99.90
17813;DHT22;9030;50.792;8.320;2023-12-04T15:26:35;-2.00;99.90
17813;DHT22;9030;50.792;8.320;2023-12-04T15:29:02;-2.00;99.90
17813;DHT22;9030;50.792;8.320;2023-12-04T15:31:30;-2.00;99.90
17813;DHT22;9030;50.792;8.320;2023-12-04T15:33:56;-2.00;99.90
17813;DHT22;9030;50.792;8.320;2023-12-04T15:36:22;-2.00;99.90
17813;DHT22;9030;50.792;8.320;2023-12-04T15:38:49;-2.00;99.90
17813;DHT22;9030;50.792;8.320;2023-12-04T15:41:15;-2.00;99.90
17813;DHT22;9030;50.792;8.320;2023-12-04T15:43:43;-2.00;99.90
17813;DHT22;9030;50.792;8.320;2023-12-04T15:46:13;-1.90;99.90
17813;DHT22;9030;50.792;8.320;2023-12-04T15:48:40;-2.00;99.90
17813;DHT22;9030;50.792;8.320;2023-12-04T15:51:06;-1.90;99.90
17813;DHT22;9030;50.792;8.320;2023-12-04T15:53:32;-1.90;99.90
17813;DHT22;9030;50.792;8.320;2023-12-04T15:55:58;-1.90;99.90
17813;DHT22;9030;50.792;8.320;2023-12-04T15:58:25;-1.90;99.90
17813;DHT22;9030;50.792;8.320;2023-12-04T16:00:52;-2.00;99.90
17813;DHT22;9030;50.792;8.320;2023-12-04T16:03:19;-2.00;99.90
17813;DHT22;9030;50.792;8.320;2023-12-04T16:05:45;-2.00;99.90
17813;DHT22;9030;50.792;8.320;2023-12-04T16:08:12;-2.00;99.90
17813;DHT22;9030;50.792;8.320;2023-12-04T16:10:40;-2.00;99.90
17813;DHT22;9030;50.792;8.320;2023-12-04T16:13:06;-2.00;99.90
17813;DHT22;9030;50.792;8.320;2023-12-04T16:15:33;-2.00;99.90
17813;DHT22;9030;50.792;8.320;2023-12-04T16:18:01;-2.00;99.90
17813;DHT22;9030;50.792;8.320;2023-12-04T16:20:28;-1.90;99.90
17813;DHT22;9030;50.792;8.320;2023-12-04T16:22:54;-1.90;99.90
17813;DHT22;9030;50.792;8.320;2023-12-04T16:25:22;-1.90;99.90
17813;DHT22;9030;50.792;8.320;2023-12-04T16:27:50;-1.90;99.90
17813;DHT22;9030;50.792;8.320;2023-12-04T16:30:19;-1.90;99.90
17813;DHT22;9030;50.792;8.320;2023-12-04T16:32:46;-1.90;99.90
17813;DHT22;9030;50.792;8.320;2023-12-04T16:35:15;-1.90;99.90
17813;DHT22;9030;50.792;8.320;2023-12-04T16:37:41;-1.90;99.90
17813;DHT22;9030;50.792;8.320;2023-12-04T16:40:09;-1.90;99.90
17813;DHT22;9030;50.792;8.320;2023-12-04T16:42:36;-1.90;99.90
17813;DHT22;9030;50.792;8.320;2023-12-04T16:45:03;-1.90;99.90
17813;DHT22;9030;50.792;8.320;2023-12-04T16:47:30;-1.80;99.90
17813;DHT22;9030;50.792;8.320;2023-12-04T16:49:57;-1.90;99.90
17813;DHT22;9030;50.792;8.320;2023-12-04T16:52:25;-1.80;99.90
17813;DHT22;9030;50.792;8.320;2023-12-04T16:54:53;-1.90;99.90
17813;DHT22;9030;50.792;8.320;2023-12-04T16:57:20;-1.90;99.90
17813;DHT22;9030;50.792;8.320;2023-12-04T16:59:47;-1.90;99.90
17813;DHT22;9030;50.792;8.320;2023-12-04T17:02:13;-1.90;99.90
17813;DHT22;9030;50.792;8.320;2023-12-04T17:04:40;-1.90;99.90
17813;DHT22;9030;50.792;8.320;2023-12-04T17:07:07;-1.80;99.90
17813;DHT22;9030;50.792;8.320;2023-12-04T17:09:35;-1.80;99.90
17813;DHT22;9030;50.792;8.320;2023-12-04T17:12:03;-1.80;99.90
17813;DHT22;9030;50.792;8.320;2023-12-04T17:14:30;-1.80;99.90
17813;DHT22;9030;50.792;8.320;2023-12-04T17:16:57;-1.80;99.90
17813;DHT22;9030;50.792;8.320;2023-12-04T17:19:23;-1.80;99.90
17813;DHT22;9030;50.792;8.320;2023-12-04T17:21:50;-1.80;99.90
17813;DHT22;9030;50.792;8.320;2023-12-04T17:24:17;-1.80;99.90
17813;DHT22;9030;50.792;8.320;2023-12-04T17:26:45;-1.80;99.90
17813;DHT22;9030;50.792;8.320;2023-12-04T17:29:11;-1.80;99.90
17813;DHT22;9030;50.792;8.320;2023-12-04T17:31:38;-1.80;99.90
17813;DHT22;9030;50.792;8.320;2023-12-04T17:34:08;-1.80;99.90
17813;DHT22;9030;50.792;8.320;2023-12-04T17:36:34;-1.80;99.90
17813;DHT22;9030;50.792;8.320;2023-12-04T17:39:02;-1.70;99.90
17813;DHT22;9030;50.792;8.320;2023-12-04T17:41:28;-1.70;99.90
17813;DHT22;9030;50.792;8.320;2023-12-04T17:43:56;-1.70;99.90
17813;DHT22;9030;50.792;8.320;2023-12-04T17:46:23;-1.70;99.90
17813;DHT22;9030;50.792;8.320;2023-12-04T17:48:50;-1.70;99.90